sensor_id;sensor_type;location;lat;lon;timestamp;pressure;altitude;pressure_sealevel;temperature;humidity
76592;BME280;65481;47.600;19.682;2024-01-30T00:00:05;102625.72;;;-1.86;100.00
76592;BME280;65481;47.600;19.682;2024-01-30T00:05:06;102620.16;;;-1.94;100.00
76592;BME280;65481;47.600;19.682;2024-01-30T00:10:06;102628.38;;;-2.02;100.00
76592;BME280;65481;47.600;19.682;2024-01-30T00:15:07;102629.03;;;-1.98;100.00
76592;BME280;65481;47.600;19.682;2024-01-30T00:20:10;102633.28;;;-1.97;100.00
76592;BME280;65481;47.600;19.682;2024-01-30T00:25:11;102634.09;;;-1.96;100.00
76592;BME280;65481;47.600;19.682;2024-01-30T00:30:12;102637.88;;;-2.02;100.00
76592;BME280;65481;47.600;19.682;2024-01-30T00:35:12;102637.78;;;-2.01;100.00
76592;BME280;65481;47.600;19.682;2024-01-30T00:40:13;102640.56;;;-2.04;100.00
76592;BME280;65481;47.600;19.682;2024-01-30T00:45:16;102635.28;;;-2.02;100.00
76592;BME280;65481;47.600;19.682;2024-01-30T00:50:17;102632.31;;;-2.10;100.00
76592;BME280;65481;47.600;19.682;2024-01-30T00:55:17;102636.88;;;-2.16;100.00
76592;BME280;65481;47.600;19.682;2024-01-30T01:00:18;102647.56;;;-2.22;100.00
76592;BME280;65481;47.600;19.682;2024-01-30T01:05:21;102644.38;;;-2.27;100.00
76592;BME280;65481;47.600;19.682;2024-01-30T01:10:21;102650.72;;;-2.33;100.00
76592;BME280;65481;47.600;19.682;2024-01-30T01:15:23;102650.06;;;-2.36;100.00
76592;BME280;65481;47.600;19.682;2024-01-30T01:20:23;102648.88;;;-2.31;100.00
76592;BME280;65481;47.600;19.682;2024-01-30T01:25:24;102654.06;;;-2.31;100.00
76592;BME280;65481;47.600;19.682;2024-01-30T01:30:24;102645.66;;;-2.34;100.00
76592;BME280;65481;47.600;19.682;2024-01-30T01:35:26;102642.06;;;-2.32;100.00
76592;BME280;65481;47.600;19.682;2024-01-30T01:40:27;102631.81;;;-2.33;100.00
76592;BME280;65481;47.600;19.682;2024-01-30T01:45:28;102629.06;;;-2.30;100.00
76592;BME280;65481;47.600;19.682;2024-01-30T01:50:28;102624.78;;;-2.31;100.00
76592;BME280;65481;47.600;19.682;2024-01-30T01:55:29;102623.28;;;-2.35;100.00
76592;BME280;65481;47.600;19.682;2024-01-30T02:00:31;102624.38;;;-2.39;100.00
76592;BME280;65481;47.600;19.682;2024-01-30T02:05:32;102627.78;;;-2.55;100.00
76592;BME280;65481;47.600;19.682;2024-01-30T02:10:32;102624.44;;;-2.57;100.00
76592;BME280;65481;47.600;19.682;2024-01-30T02:15:33;102617.66;;;-2.76;100.00
76592;BME280;65481;47.600;19.682;2024-01-30T02:20:35;102626.81;;;-2.86;100.00
76592;BME280;65481;47.600;19.682;2024-01-30T02:25:42;102630.72;;;-2.95;100.00
76592;BME280;65481;47.600;19.682;2024-01-30T02:30:44;102625.22;;;-2.89;100.00
76592;BME280;65481;47.600;19.682;2024-01-30T02:35:45;102629.56;;;-2.89;100.00
76592;BME280;65481;47.600;19.682;2024-01-30T02:40:46;102626.13;;;-2.90;100.00
76592;BME280;65481;47.600;19.682;2024-01-30T02:45:46;102632.81;;;-2.85;100.00
76592;BME280;65481;47.600;19.682;2024-01-30T02:50:47;102634.38;;;-2.83;100.00
76592;BME280;65481;47.600;19.682;2024-01-30T02:55:48;102629.41;;;-2.86;100.00
76592;BME280;65481;47.600;19.682;2024-01-30T03:00:48;102621.72;;;-2.87;100.00
76592;BME280;65481;47.600;19.682;2024-01-30T03:05:49;102627.81;;;-2.89;100.00
76592;BME280;65481;47.600;19.682;2024-01-30T03:10:49;102629.13;;;-2.97;100.00
76592;BME280;65481;47.600;19.682;2024-01-30T03:15:50;102617.44;;;-3.05;100.00
76592;BME280;65481;47.600;19.682;2024-01-30T03:20:50;102619.41;;;-3.10;100.00
76592;BME280;65481;47.600;19.682;2024-01-30T03:25:51;102623.81;;;-3.12;100.00
76592;BME280;65481;47.600;19.682;2024-01-30T03:30:52;102612.81;;;-3.15;100.00
76592;BME280;65481;47.600;19.682;2024-01-30T03:35:52;102611.22;;;-3.18;100.00
76592;BME280;65481;47.600;19.682;2024-01-30T03:40:53;102607.81;;;-3.18;100.00
76592;BME280;65481;47.600;19.682;2024-01-30T03:45:53;102617.09;;;-3.14;100.00
76592;BME280;65481;47.600;19.682;2024-01-30T03:50:54;102615.56;;;-3.18;100.00
76592;BME280;65481;47.600;19.682;2024-01-30T03:55:54;102615.03;;;-3.25;100.00
76592;BME280;65481;47.600;19.682;2024-01-30T04:00:55;102614.88;;;-3.22;100.00
76592;BME280;65481;47.600;19.682;2024-01-30T04:05:58;102610.53;;;-3.22;100.00
76592;BME280;65481;47.600;19.682;2024-01-30T04:11:03;102605.53;;;-3.25;100.00
76592;BME280;65481;47.600;19.682;2024-01-30T04:16:04;102617.63;;;-3.25;100.00
76592;BME280;65481;47.600;19.682;2024-01-30T04:21:05;102610.84;;;-3.28;100.00
76592;BME280;65481;47.600;19.682;2024-01-30T04:26:06;102614.94;;;-3.24;100.00
76592;BME280;65481;47.600;19.682;2024-01-30T04:31:06;102609.94;;;-3.27;100.00
76592;BME280;65481;47.600;19.682;2024-01-30T04:36:08;102611.59;;;-3.26;100.00
76592;BME280;65481;47.600;19.682;2024-01-30T04:41:12;102621.66;;;-3.37;100.00
76592;BME280;65481;47.600;19.682;2024-01-30T04:46:13;102616.41;;;-3.53;100.00
76592;BME280;65481;47.600;19.682;2024-01-30T04:51:13;102621.81;;;-3.58;100.00
76592;BME280;65481;47.600;19.682;2024-01-30T04:56:14;102615.88;;;-3.60;100.00
76592;BME280;65481;47.600;19.682;2024-01-30T05:01:17;102619.16;;;-3.56;100.00
76592;BME280;65481;47.600;19.682;2024-01-30T05:06:25;102615.66;;;-3.55;100.00
76592;BME280;65481;47.600;19.682;2024-01-30T05:11:26;102622.19;;;-3.48;100.00
76592;BME280;65481;47.600;19.682;2024-01-30T05:16:27;102630.53;;;-3.60;100.00
76592;BME280;65481;47.600;19.682;2024-01-30T05:21:27;102626.06;;;-3.57;100.00
76592;BME280;65481;47.600;19.682;2024-01-30T05:26:28;102629.00;;;-3.65;100.00
76592;BME280;65481;47.600;19.682;2024-01-30T05:31:29;102630.16;;;-3.70;100.00
76592;BME280;65481;47.600;19.682;2024-01-30T05:36:29;102637.19;;;-3.74;100.00
76592;BME280;65481;47.600;19.682;2024-01-30T05:41:30;102640.00;;;-3.78;100.00
76592;BME280;65481;47.600;19.682;2024-01-30T05:46:30;102646.28;;;-3.84;100.00
76592;BME280;65481;47.600;19.682;2024-01-30T05:51:31;102649.00;;;-3.87;100.00
76592;BME280;65481;47.600;19.682;2024-01-30T05:56:31;102659.88;;;-3.81;100.00
76592;BME280;65481;47.600;19.682;2024-01-30T06:01:32;102659.81;;;-3.79;100.00
76592;BME280;65481;47.600;19.682;2024-01-30T06:06:33;102664.50;;;-3.87;100.00
76592;BME280;65481;47.600;19.682;2024-01-30T06:11:34;102669.09;;;-3.94;100.00
76592;BME280;65481;47.600;19.682;2024-01-30T06:16:34;102672.72;;;-3.98;100.00
76592;BME280;65481;47.600;19.682;2024-01-30T06:21:35;102678.31;;;-3.88;100.00
76592;BME280;65481;47.600;19.682;2024-01-30T06:26:37;102669.75;;;-3.89;100.00
76592;BME280;65481;47.600;19.682;2024-01-30T06:31:41;102674.13;;;-3.91;100.00
76592;BME280;65481;47.600;19.682;2024-01-30T06:36:44;102665.41;;;-3.88;100.00
76592;BME280;65481;47.600;19.682;2024-01-30T06:41:44;102666.72;;;-3.80;100.00
76592;BME280;65481;47.600;19.682;2024-01-30T06:46:47;102667.88;;;-3.68;100.00
76592;BME280;65481;47.600;19.682;2024-01-30T06:51:47;102663.19;;;-3.59;100.00
76592;BME280;65481;47.600;19.682;2024-01-30T06:56:48;102671.53;;;-3.54;100.00
76592;BME280;65481;47.600;19.682;2024-01-30T07:01:48;102671.53;;;-3.37;100.00
76592;BME280;65481;47.600;19.682;2024-01-30T07:06:49;102675.09;;;-3.22;100.00
76592;BME280;65481;47.600;19.682;2024-01-30T07:11:50;102683.59;;;-3.02;100.00
76592;BME280;65481;47.600;19.682;2024-01-30T07:16:50;102686.22;;;-2.52;100.00
76592;BME280;65481;47.600;19.682;2024-01-30T07:21:51;102690.00;;;-1.78;100.00
76592;BME280;65481;47.600;19.682;2024-01-30T07:26:52;102677.38;;;-0.93;100.00
76592;BME280;65481;47.600;19.682;2024-01-30T07:31:53;102678.88;;;-0.03;100.00
76592;BME280;65481;47.600;19.682;2024-01-30T07:36:53;102679.81;;;0.77;100.00
76592;BME280;65481;47.600;19.682;2024-01-30T07:41:54;102674.25;;;1.59;100.00
76592;BME280;65481;47.600;19.682;2024-01-30T07:46:54;102672.63;;;2.31;100.00
76592;BME280;65481;47.600;19.682;2024-01-30T07:51:55;102675.63;;;2.96;97.20
76592;BME280;65481;47.600;19.682;2024-01-30T07:56:56;102673.94;;;3.74;91.58
76592;BME280;65481;47.600;19.682;2024-01-30T08:01:56;102672.34;;;4.27;87.41
76592;BME280;65481;47.600;19.682;2024-01-30T08:06:57;102671.38;;;4.61;86.47
76592;BME280;65481;47.600;19.682;2024-01-30T08:11:57;102669.09;;;4.98;83.81
76592;BME280;65481;47.600;19.682;2024-01-30T08:16:58;102666.19;;;5.73;80.88
76592;BME280;65481;47.600;19.682;2024-01-30T08:21:58;102668.84;;;6.13;78.93
76592;BME280;65481;47.600;19.682;2024-01-30T08:26:59;102674.22;;;6.50;77.04
76592;BME280;65481;47.600;19.682;2024-01-30T08:32:01;102670.44;;;7.20;74.93
76592;BME280;65481;47.600;19.682;2024-01-30T08:37:03;102671.75;;;7.62;73.19
76592;BME280;65481;47.600;19.682;2024-01-30T08:42:03;102681.75;;;7.95;71.73
76592;BME280;65481;47.600;19.682;2024-01-30T08:47:04;102685.50;;;8.28;69.82
76592;BME280;65481;47.600;19.682;2024-01-30T08:52:05;102683.63;;;8.39;68.99
76592;BME280;65481;47.600;19.682;2024-01-30T08:57:05;102677.59;;;8.46;67.81
76592;BME280;65481;47.600;19.682;2024-01-30T09:02:06;102677.53;;;8.83;66.96
76592;BME280;65481;47.600;19.682;2024-01-30T09:07:07;102677.06;;;9.22;65.37
76592;BME280;65481;47.600;19.682;2024-01-30T09:12:09;102669.94;;;9.14;65.02
76592;BME280;65481;47.600;19.682;2024-01-30T09:17:11;102671.75;;;9.48;64.70
76592;BME280;65481;47.600;19.682;2024-01-30T09:22:12;102674.50;;;9.47;63.79
76592;BME280;65481;47.600;19.682;2024-01-30T09:27:13;102670.03;;;9.39;64.53
76592;BME280;65481;47.600;19.682;2024-01-30T09:32:13;102672.22;;;9.52;64.22
76592;BME280;65481;47.600;19.682;2024-01-30T09:37:14;102679.66;;;9.57;64.24
76592;BME280;65481;47.600;19.682;2024-01-30T09:42:28;102666.16;;;9.68;63.47
76592;BME280;65481;47.600;19.682;2024-01-30T09:47:40;102664.91;;;9.29;64.70
76592;BME280;65481;47.600;19.682;2024-01-30T09:52:45;102664.16;;;9.11;65.89
76592;BME280;65481;47.600;19.682;2024-01-30T09:57:46;102660.97;;;9.42;65.59
76592;BME280;65481;47.600;19.682;2024-01-30T10:02:46;102667.06;;;9.93;64.28
76592;BME280;65481;47.600;19.682;2024-01-30T10:07:53;102667.88;;;10.02;64.24
76592;BME280;65481;47.600;19.682;2024-01-30T10:12:54;102653.03;;;9.93;64.52
76592;BME280;65481;47.600;19.682;2024-01-30T10:17:55;102656.13;;;9.80;65.24
76592;BME280;65481;47.600;19.682;2024-01-30T10:22:56;102653.53;;;10.13;64.47
76592;BME280;65481;47.600;19.682;2024-01-30T10:27:59;102652.34;;;9.91;64.59
76592;BME280;65481;47.600;19.682;2024-01-30T10:33:00;102649.72;;;9.74;64.87
76592;BME280;65481;47.600;19.682;2024-01-30T10:38:01;102658.88;;;9.53;64.96
76592;BME280;65481;47.600;19.682;2024-01-30T10:43:02;102634.53;;;9.60;64.87
76592;BME280;65481;47.600;19.682;2024-01-30T10:48:05;102633.06;;;9.57;65.31
76592;BME280;65481;47.600;19.682;2024-01-30T10:53:08;102626.72;;;9.42;65.51
76592;BME280;65481;47.600;19.682;2024-01-30T10:58:10;102622.78;;;9.37;66.55
76592;BME280;65481;47.600;19.682;2024-01-30T11:03:12;102616.22;;;9.50;65.97
76592;BME280;65481;47.600;19.682;2024-01-30T11:08:13;102615.91;;;9.61;66.42
76592;BME280;65481;47.600;19.682;2024-01-30T11:13:15;102613.44;;;9.00;68.62
76592;BME280;65481;47.600;19.682;2024-01-30T11:18:26;102612.97;;;9.13;69.56
76592;BME280;65481;47.600;19.682;2024-01-30T11:23:30;102601.00;;;9.27;68.52
76592;BME280;65481;47.600;19.682;2024-01-30T11:28:34;102602.56;;;8.95;69.63
76592;BME280;65481;47.600;19.682;2024-01-30T11:33:35;102593.34;;;8.64;70.52
76592;BME280;65481;47.600;19.682;2024-01-30T11:38:35;102589.34;;;8.34;71.41
76592;BME280;65481;47.600;19.682;2024-01-30T11:43:36;102580.38;;;8.18;72.46
76592;BME280;65481;47.600;19.682;2024-01-30T11:48:38;102581.53;;;8.16;72.45
76592;BME280;65481;47.600;19.682;2024-01-30T11:53:39;102583.00;;;8.18;73.15
76592;BME280;65481;47.600;19.682;2024-01-30T11:58:42;102576.38;;;7.88;74.98
76592;BME280;65481;47.600;19.682;2024-01-30T12:03:49;102557.53;;;7.93;74.16
76592;BME280;65481;47.600;19.682;2024-01-30T12:09:00;102556.31;;;8.05;74.59
76592;BME280;65481;47.600;19.682;2024-01-30T12:14:01;102546.47;;;8.07;73.65
76592;BME280;65481;47.600;19.682;2024-01-30T12:19:01;102538.38;;;7.82;75.43
76592;BME280;65481;47.600;19.682;2024-01-30T12:24:02;102532.44;;;7.80;75.74
76592;BME280;65481;47.600;19.682;2024-01-30T12:29:03;102526.88;;;7.83;74.96
76592;BME280;65481;47.600;19.682;2024-01-30T12:34:04;102524.44;;;7.64;76.15
76592;BME280;65481;47.600;19.682;2024-01-30T12:39:05;102509.28;;;7.57;76.34
76592;BME280;65481;47.600;19.682;2024-01-30T12:44:05;102512.72;;;7.58;76.32
76592;BME280;65481;47.600;19.682;2024-01-30T12:49:06;102508.00;;;7.43;77.78
76592;BME280;65481;47.600;19.682;2024-01-30T12:54:07;102506.50;;;7.41;78.31
76592;BME280;65481;47.600;19.682;2024-01-30T12:59:08;102514.75;;;7.46;78.29
76592;BME280;65481;47.600;19.682;2024-01-30T13:04:08;102508.97;;;7.24;78.61
76592;BME280;65481;47.600;19.682;2024-01-30T13:09:08;102499.38;;;7.15;78.57
76592;BME280;65481;47.600;19.682;2024-01-30T13:14:09;102494.34;;;7.22;77.44
76592;BME280;65481;47.600;19.682;2024-01-30T13:19:10;102495.47;;;7.37;77.05
76592;BME280;65481;47.600;19.682;2024-01-30T13:24:10;102491.34;;;7.35;76.05
76592;BME280;65481;47.600;19.682;2024-01-30T13:29:11;102489.09;;;7.22;75.69
76592;BME280;65481;47.600;19.682;2024-01-30T13:34:11;102482.50;;;7.36;74.28
76592;BME280;65481;47.600;19.682;2024-01-30T13:39:12;102481.66;;;7.35;73.69
76592;BME280;65481;47.600;19.682;2024-01-30T13:44:13;102481.66;;;6.99;73.95
76592;BME280;65481;47.600;19.682;2024-01-30T13:49:14;102481.50;;;7.01;73.17
76592;BME280;65481;47.600;19.682;2024-01-30T13:54:14;102473.25;;;6.67;72.49
76592;BME280;65481;47.600;19.682;2024-01-30T13:59:17;102474.56;;;6.63;73.27
76592;BME280;65481;47.600;19.682;2024-01-30T14:04:25;102468.78;;;6.50;73.00
76592;BME280;65481;47.600;19.682;2024-01-30T14:09:25;102467.00;;;6.50;73.31
76592;BME280;65481;47.600;19.682;2024-01-30T14:14:25;102468.03;;;6.40;71.60
76592;BME280;65481;47.600;19.682;2024-01-30T14:19:26;102465.16;;;6.33;71.33
76592;BME280;65481;47.600;19.682;2024-01-30T14:24:26;102462.56;;;6.23;69.79
76592;BME280;65481;47.600;19.682;2024-01-30T14:29:27;102465.94;;;6.05;71.00
76592;BME280;65481;47.600;19.682;2024-01-30T14:34:28;102461.53;;;5.86;72.60
76592;BME280;65481;47.600;19.682;2024-01-30T14:39:28;102453.31;;;5.71;73.53
76592;BME280;65481;47.600;19.682;2024-01-30T14:44:29;102456.31;;;5.57;74.23
76592;BME280;65481;47.600;19.682;2024-01-30T14:49:31;102449.59;;;5.35;75.65
76592;BME280;65481;47.600;19.682;2024-01-30T14:54:31;102448.50;;;5.27;76.63
76592;BME280;65481;47.600;19.682;2024-01-30T14:59:32;102442.16;;;5.10;78.03
76592;BME280;65481;47.600;19.682;2024-01-30T15:04:34;102447.53;;;4.99;79.37
76592;BME280;65481;47.600;19.682;2024-01-30T15:09:35;102448.72;;;4.85;79.68
76592;BME280;65481;47.600;19.682;2024-01-30T15:14:35;102448.72;;;4.75;79.96
76592;BME280;65481;47.600;19.682;2024-01-30T15:19:37;102443.19;;;4.68;80.22
76592;BME280;65481;47.600;19.682;2024-01-30T15:24:38;102445.59;;;4.50;81.32
76592;BME280;65481;47.600;19.682;2024-01-30T15:29:39;102449.53;;;4.35;81.56
76592;BME280;65481;47.600;19.682;2024-01-30T15:34:40;102454.31;;;4.20;83.13
76592;BME280;65481;47.600;19.682;2024-01-30T15:39:40;102458.84;;;3.97;87.99
76592;BME280;65481;47.600;19.682;2024-01-30T15:44:41;102464.91;;;3.76;92.14
76592;BME280;65481;47.600;19.682;2024-01-30T15:49:41;102471.78;;;3.56;96.03
76592;BME280;65481;47.600;19.682;2024-01-30T15:54:42;102473.06;;;3.29;100.00
76592;BME280;65481;47.600;19.682;2024-01-30T15:59:43;102477.75;;;3.02;100.00
76592;BME280;65481;47.600;19.682;2024-01-30T16:04:43;102472.84;;;2.77;100.00
76592;BME280;65481;47.600;19.682;2024-01-30T16:09:44;102471.06;;;2.43;100.00
76592;BME280;65481;47.600;19.682;2024-01-30T16:14:45;102478.31;;;2.28;100.00
76592;BME280;65481;47.600;19.682;2024-01-30T16:19:47;102474.84;;;2.16;100.00
76592;BME280;65481;47.600;19.682;2024-01-30T16:24:50;102475.66;;;2.05;100.00
76592;BME280;65481;47.600;19.682;2024-01-30T16:29:50;102483.34;;;1.95;100.00
76592;BME280;65481;47.600;19.682;2024-01-30T16:34:51;102479.88;;;1.84;100.00
76592;BME280;65481;47.600;19.682;2024-01-30T16:39:51;102478.66;;;1.76;100.00
76592;BME280;65481;47.600;19.682;2024-01-30T16:44:52;102485.75;;;1.74;100.00
76592;BME280;65481;47.600;19.682;2024-01-30T16:49:53;102471.88;;;1.62;100.00
76592;BME280;65481;47.600;19.682;2024-01-30T16:54:54;102473.00;;;1.47;100.00
76592;BME280;65481;47.600;19.682;2024-01-30T16:59:54;102477.59;;;1.43;100.00
76592;BME280;65481;47.600;19.682;2024-01-30T17:04:55;102477.81;;;1.40;100.00
76592;BME280;65481;47.600;19.682;2024-01-30T17:09:58;102469.25;;;1.27;100.00
76592;BME280;65481;47.600;19.682;2024-01-30T17:14:59;102468.75;;;1.21;100.00
76592;BME280;65481;47.600;19.682;2024-01-30T17:20:00;102467.31;;;1.17;100.00
76592;BME280;65481;47.600;19.682;2024-01-30T17:25:01;102458.88;;;1.14;100.00
76592;BME280;65481;47.600;19.682;2024-01-30T17:30:02;102448.94;;;1.08;100.00
76592;BME280;65481;47.600;19.682;2024-01-30T17:35:03;102454.16;;;1.08;100.00
76592;BME280;65481;47.600;19.682;2024-01-30T17:40:05;102446.44;;;1.06;100.00
76592;BME280;65481;47.600;19.682;2024-01-30T17:45:07;102450.50;;;1.10;100.00
76592;BME280;65481;47.600;19.682;2024-01-30T17:50:08;102437.81;;;1.05;100.00
76592;BME280;65481;47.600;19.682;2024-01-30T17:55:09;102447.50;;;1.03;100.00
76592;BME280;65481;47.600;19.682;2024-01-30T18:00:10;102444.38;;;0.98;100.00
76592;BME280;65481;47.600;19.682;2024-01-30T18:05:11;102445.66;;;0.93;100.00
76592;BME280;65481;47.600;19.682;2024-01-30T18:10:12;102441.81;;;0.85;100.00
76592;BME280;65481;47.600;19.682;2024-01-30T18:15:19;102439.28;;;0.72;100.00
76592;BME280;65481;47.600;19.682;2024-01-30T18:20:19;102449.16;;;0.67;100.00
76592;BME280;65481;47.600;19.682;2024-01-30T18:25:20;102436.06;;;0.56;100.00
76592;BME280;65481;47.600;19.682;2024-01-30T18:30:20;102434.19;;;0.58;100.00
76592;BME280;65481;47.600;19.682;2024-01-30T18:35:21;102432.16;;;0.50;100.00
76592;BME280;65481;47.600;19.682;2024-01-30T18:40:22;102436.91;;;0.56;100.00
76592;BME280;65481;47.600;19.682;2024-01-30T18:45:23;102429.94;;;0.57;100.00
76592;BME280;65481;47.600;19.682;2024-01-30T18:50:24;102437.47;;;0.36;100.00
76592;BME280;65481;47.600;19.682;2024-01-30T18:55:25;102433.63;;;0.28;100.00
76592;BME280;65481;47.600;19.682;2024-01-30T19:00:26;102430.94;;;0.17;100.00
76592;BME280;65481;47.600;19.682;2024-01-30T19:05:28;102427.19;;;0.08;100.00
76592;BME280;65481;47.600;19.682;2024-01-30T19:10:30;102425.66;;;-0.07;100.00
76592;BME280;65481;47.600;19.682;2024-01-30T19:15:34;102428.63;;;-0.13;100.00
76592;BME280;65481;47.600;19.682;2024-01-30T19:20:35;102431.16;;;-0.12;100.00
76592;BME280;65481;47.600;19.682;2024-01-30T19:25:37;102419.50;;;-0.19;100.00
76592;BME280;65481;47.600;19.682;2024-01-30T19:30:38;102425.94;;;-0.25;100.00
76592;BME280;65481;47.600;19.682;2024-01-30T19:35:39;102426.75;;;-0.24;100.00
76592;BME280;65481;47.600;19.682;2024-01-30T19:40:40;102432.78;;;-0.24;100.00
76592;BME280;65481;47.600;19.682;2024-01-30T19:45:42;102427.81;;;-0.27;100.00
76592;BME280;65481;47.600;19.682;2024-01-30T19:50:43;102431.50;;;-0.44;100.00
76592;BME280;65481;47.600;19.682;2024-01-30T19:55:44;102418.28;;;-0.67;100.00
76592;BME280;65481;47.600;19.682;2024-01-30T20:00:45;102418.25;;;-0.80;100.00
76592;BME280;65481;47.600;19.682;2024-01-30T20:05:46;102425.84;;;-0.91;100.00
76592;BME280;65481;47.600;19.682;2024-01-30T20:10:47;102420.97;;;-0.96;100.00
76592;BME280;65481;47.600;19.682;2024-01-30T20:15:48;102421.88;;;-0.82;100.00
76592;BME280;65481;47.600;19.682;2024-01-30T20:20:51;102417.63;;;-0.83;100.00
76592;BME280;65481;47.600;19.682;2024-01-30T20:25:53;102420.59;;;-0.89;100.00
76592;BME280;65481;47.600;19.682;2024-01-30T20:30:56;102417.88;;;-0.88;100.00
76592;BME280;65481;47.600;19.682;2024-01-30T20:35:57;102411.91;;;-0.88;100.00
76592;BME280;65481;47.600;19.682;2024-01-30T20:40:59;102410.72;;;-0.97;100.00
76592;BME280;65481;47.600;19.682;2024-01-30T20:46:00;102407.38;;;-0.99;100.00
76592;BME280;65481;47.600;19.682;2024-01-30T20:51:01;102411.22;;;-1.05;100.00
76592;BME280;65481;47.600;19.682;2024-01-30T20:56:03;102411.59;;;-1.11;100.00
76592;BME280;65481;47.600;19.682;2024-01-30T21:01:04;102412.56;;;-1.27;100.00
76592;BME280;65481;47.600;19.682;2024-01-30T21:06:07;102401.81;;;-1.35;100.00
76592;BME280;65481;47.600;19.682;2024-01-30T21:11:10;102409.03;;;-1.26;100.00
76592;BME280;65481;47.600;19.682;2024-01-30T21:16:11;102402.28;;;-1.28;100.00
76592;BME280;65481;47.600;19.682;2024-01-30T21:21:11;102406.44;;;-1.26;100.00
76592;BME280;65481;47.600;19.682;2024-01-30T21:26:12;102403.66;;;-1.23;100.00
76592;BME280;65481;47.600;19.682;2024-01-30T21:31:14;102401.91;;;-1.22;100.00
76592;BME280;65481;47.600;19.682;2024-01-30T21:36:16;102398.75;;;-1.27;100.00
76592;BME280;65481;47.600;19.682;2024-01-30T21:41:17;102400.53;;;-1.28;100.00
76592;BME280;65481;47.600;19.682;2024-01-30T21:46:27;102388.88;;;-1.35;100.00
76592;BME280;65481;47.600;19.682;2024-01-30T21:51:27;102380.75;;;-1.43;100.00
76592;BME280;65481;47.600;19.682;2024-01-30T21:56:29;102380.13;;;-1.47;100.00
76592;BME280;65481;47.600;19.682;2024-01-30T22:01:30;102387.16;;;-1.49;100.00
76592;BME280;65481;47.600;19.682;2024-01-30T22:06:30;102389.47;;;-1.44;100.00
76592;BME280;65481;47.600;19.682;2024-01-30T22:11:31;102380.78;;;-1.58;100.00
76592;BME280;65481;47.600;19.682;2024-01-30T22:16:31;102384.31;;;-1.59;100.00
76592;BME280;65481;47.600;19.682;2024-01-30T22:21:32;102375.97;;;-1.49;100.00
76592;BME280;65481;47.600;19.682;2024-01-30T22:26:42;102371.34;;;-1.44;100.00
76592;BME280;65481;47.600;19.682;2024-01-30T22:31:43;102372.81;;;-1.40;100.00
76592;BME280;65481;47.600;19.682;2024-01-30T22:36:43;102370.22;;;-1.55;100.00
76592;BME280;65481;47.600;19.682;2024-01-30T22:41:44;102379.38;;;-1.63;100.00
76592;BME280;65481;47.600;19.682;2024-01-30T22:46:44;102376.63;;;-1.75;100.00
76592;BME280;65481;47.600;19.682;2024-01-30T22:51:45;102372.31;;;-1.74;100.00
76592;BME280;65481;47.600;19.682;2024-01-30T22:56:49;102360.47;;;-1.78;100.00
76592;BME280;65481;47.600;19.682;2024-01-30T23:01:50;102359.56;;;-1.92;100.00
76592;BME280;65481;47.600;19.682;2024-01-30T23:06:50;102352.44;;;-2.03;100.00
76592;BME280;65481;47.600;19.682;2024-01-30T23:11:51;102350.22;;;-2.09;100.00
76592;BME280;65481;47.600;19.682;2024-01-30T23:16:52;102351.25;;;-2.11;100.00
76592;BME280;65481;47.600;19.682;2024-01-30T23:21:52;102344.94;;;-2.22;100.00
76592;BME280;65481;47.600;19.682;2024-01-30T23:26:53;102348.25;;;-2.34;100.00
76592;BME280;65481;47.600;19.682;2024-01-30T23:31:53;102349.34;;;-2.38;100.00
76592;BME280;65481;47.600;19.682;2024-01-30T23:36:54;102342.34;;;-2.36;100.00
76592;BME280;65481;47.600;19.682;2024-01-30T23:41:54;102337.44;;;-2.41;100.00
76592;BME280;65481;47.600;19.682;2024-01-30T23:46:55;102337.97;;;-2.50;100.00
76592;BME280;65481;47.600;19.682;2024-01-30T23:51:55;102342.41;;;-2.52;100.00
76592;BME280;65481;47.600;19.682;2024-01-30T23:56:56;102343.25;;;-2.52;100.00
